Belgrade Nikola Tesla, Serbia

1:55 AM CEST on July 24, 2014 (GMT +0200)
Belgrade (LYBE) Elev 325 ft | 44.82 °N, 20.29 °E | Change Station

Current weather conditions updated 25 minutes ago

Scattered Clouds
Scattered Clouds
66 °F
Feels Like 66 °F
N
7
Wind Variable Wind from West

Today is forecast to be Warmer than yesterday.

Today
High -- | Low -- °F
--% Chance of Precip.
Yesterday
High -- | Low -- °F
Precip. -- in
5:15 AM 8:14 PM
Waning Crescent, 8% visible
Pressure 29.83 in
Visibility 6.2 miles
Clouds Scattered Clouds 4300 ft
Dew Point 64 °F
Humidity 94%
Rainfall 0.00 in
Snow Depth Not available.
UV 0 out of 12
Pollen Not available.
Air Quality Not available.
Flu Activity Not available.
METAR LYBE 232330Z 26006KT 9999 SCT043 19/18 Q1010 NOSIG

More Conditions Fewer Conditions

Pressure 29.83 in
Visibility 6.2 miles
Clouds Scattered Clouds 4300 ft
Dew Point 64 °F
Humidity 94%
Rainfall 0.00 in
Snow Depth Not available.
UV 0 out of 12
Pollen Not available.
Air Quality Not available.
Flu Activity Not available.
METAR LYBE 232330Z 26006KT 9999 SCT043 19/18 Q1010 NOSIG

More Conditions Fewer Conditions

10-Day Weather Forecast

Almanac

Astronomy

Jul. 24, 2014 Rise Set
Actual Time 5:15 AM CEST 8:14 PM CEST
Civil Twilight 4:41 AM CEST 8:48 PM CEST
Nautical Twilight 3:56 AM CEST 9:33 PM CEST
Astronomical Twilight 3:03 AM CEST 10:25 PM CEST
Moon 3:09 AM CEST (7/24) 6:14 PM CEST (7/24)
Length of Visible Light 16h 07m
Length of Day
14h 58m
Tomorrow will be 2m 5s shorter.
Waning Crescent, 8% of the Moon is Illuminated
Jul 23
Waning Crescent
Jul 26
New
Aug 3
First Quarter
Aug 10
Full
Aug 17
Last Quarter

Community

WunderPhotos

Upload Photos

1,736,817 photos uploaded!

Nearby

Snow Depth

Not available.

Earthquake Activity

City Distance Mag. Time & Date
No recent earthquake activity has been reported nearby.
Minimum magnitude displayed is 2.5.

Coastal Water Temperatures

Place Temperature
No Stations Reporting

Nearby Weather Stations

Station Location Temp. Dew Point Humidity Wind Precip. Elev Updated Type
Duboko vinogradi, Bari%u010D 69.4 °F 65 °F 87% East  at  0.0 mph 0.00 in / hr 522 ft 1:55 AM CEST Normal
Beograd-Karaburma, Beograd-Karaburma 67.8 °F 66 °F 93% WNW  at  0.0 mph 0.00 in / hr 355 ft 1:50 AM CEST Normal
Pancevo 64.8 °F 57 °F 75% NNE  at  6.9 mph 0.00 in / hr 78 ft 1:55 AM CEST Rapid Fire
Misa, Pancevo 69.4 °F 69 °F 99% NW  at  3.1 mph 0.00 in / hr 253 ft 1:54 AM CEST Rapid Fire
Zaklopaca, Grocka 67.0 °F 65 °F 94% WSW  at  1.0 mph 0.00 in / hr 577 ft 1:00 AM CEST Normal
Babe, vikend naselje, Sopot 66.7 °F 63 °F 89% North  at  - - / hr 1079 ft 1:47 AM CEST Normal

Show More Stations Show Fewer Stations